M I D A S
Marine Information and Data Acquisition System
Tripno 1959 of the Zeeleeuw from 2010-09-10 06:21:14 to 2010-09-10 13:56:12
Back to CruiseResearch ActivitiesStationsMapUnderway DataData graphs

EquipmentUnitsComment
TimeDGPSUTC
LatitudeDGPSDM.mWGS84
LongitudeDGPSDM.mWGS84
HeadingGyrodeg 
SOGDGPSknotsSpeed over ground
COGDGPSdegCourse over ground
DepthEcho soundermeters200 kHz
Missing or incorrect values are displayed as -999
Navigation data collected by the RV Zeeleeuw from 2010-09-10 06:23:44 to 2010-09-10 14:10:37
Time Latitude Longitude Heading SOG COG Depth
2010-09-10 06:24:49 51°13.665 2°55.946 111.1 1.8 293 4.8
2010-09-10 06:25:52 51°13.686 2°55.869 106.8 3.7 289 -999
2010-09-10 06:26:53 51°13.695 2°55.763 81.8 3.5 265 -999
2010-09-10 06:27:51 51°13.701 2°55.742 44.3 1.6 33 11.6
2010-09-10 06:28:51 51°13.706 2°55.754 11.4 1.5 184 -999
2010-09-10 06:29:52 51°13.732 2°55.74 332.2 4.7 333 10.7
2010-09-10 06:30:50 51°13.806 2°55.656 324.2 6.1 323 10.2
2010-09-10 06:31:49 51°13.9 2°55.577 336.4 7.7 336 9.3
2010-09-10 06:32:49 51°14.038 2°55.475 335.9 9.9 334 8.9
2010-09-10 06:33:49 51°14.193 2°55.352 334 10.8 332 -999
2010-09-10 06:34:49 51°14.352 2°55.211 332.4 11.3 331 8.8
2010-09-10 06:35:49 51°14.519 2°55.05 329.3 12.3 329 9.6
2010-09-10 06:36:49 51°14.672 2°54.808 311.1 13.4 300 9.8
2010-09-10 06:37:49 51°14.742 2°54.466 291 13.5 284 8.4
2010-09-10 06:38:49 51°14.798 2°54.113 289.1 13.9 285 8.1
2010-09-10 06:39:49 51°14.838 2°53.755 281.6 13.8 278 8.2
2010-09-10 06:40:49 51°14.883 2°53.395 286.1 13.9 283 8.3
2010-09-10 06:41:49 51°14.923 2°53.031 284.1 13.9 281 8.4
2010-09-10 06:42:49 51°14.931 2°52.66 272.3 14.1 270 8.7
2010-09-10 06:43:49 51°14.94 2°52.289 273.7 14 272 8.4
2010-09-10 06:44:49 51°14.949 2°51.918 273.6 14 273 9.2
2010-09-10 06:45:49 51°14.96 2°51.546 274.3 14.1 273 9.8
2010-09-10 06:46:49 51°14.974 2°51.177 278.8 14 279 10.4
2010-09-10 06:47:49 51°15.072 2°50.855 309.3 13.5 304 10.6
2010-09-10 06:48:49 51°15.208 2°50.567 313.4 13.6 308 11.2
2010-09-10 06:49:49 51°15.352 2°50.288 318.7 13.6 312 11.5
2010-09-10 06:50:49 51°15.457 2°50.097 313.7 6.9 304 11.5
2010-09-10 06:51:49 51°15.477 2°50.003 280.8 1.8 273 11.5
2010-09-10 06:52:51 51°15.474 2°49.985 291.2 0.5 262 4.6
2010-09-10 06:53:50 51°15.472 2°49.97 305.3 0.6 266 11.7
2010-09-10 06:54:49 51°15.469 2°49.953 320.9 0.8 266 11.5
2010-09-10 06:55:49 51°15.465 2°49.936 333.4 0.7 247 11.5
2010-09-10 06:56:49 51°15.462 2°49.918 344 0.7 257 11.5
2010-09-10 06:57:49 51°15.459 2°49.9 348.9 0.7 263 11.7
2010-09-10 06:58:49 51°15.455 2°49.883 351.3 0.7 249 11.7
2010-09-10 06:59:49 51°15.452 2°49.866 352.8 0.6 256 11.6
2010-09-10 07:00:49 51°15.456 2°49.844 341.6 2.2 313 11.5
2010-09-10 07:01:49 51°15.468 2°49.734 258.1 5.7 255 11.8
2010-09-10 07:02:49 51°15.405 2°49.573 224.9 8.1 228 11.5
2010-09-10 07:03:49 51°15.309 2°49.39 233.6 9.3 237 11.4
2010-09-10 07:04:50 51°15.221 2°49.267 180.8 4.9 186 11.5
2010-09-10 07:05:49 51°15.155 2°49.304 135.8 4.2 146 11.5
2010-09-10 07:06:49 51°15.143 2°49.375 65 2.6 54 11.4
2010-09-10 07:07:49 51°15.189 2°49.413 35.9 3.4 26 11.4
2010-09-10 07:08:49 51°15.237 2°49.463 48.9 3.4 44 11.2
2010-09-10 07:09:49 51°15.274 2°49.53 54.3 3.3 49 11.5
2010-09-10 07:10:49 51°15.318 2°49.584 41.9 3.4 32 11.4
2010-09-10 07:11:49 51°15.363 2°49.639 48.5 3.3 42 11.5
2010-09-10 07:12:49 51°15.405 2°49.697 48.9 3.3 39 11.4
2010-09-10 07:13:49 51°15.443 2°49.76 56.6 3.2 54 11.4
2010-09-10 07:14:49 51°15.47 2°49.833 62.6 3.2 61 11.5
2010-09-10 07:15:49 51°15.495 2°49.908 65.4 3.2 65 11.5
2010-09-10 07:16:49 51°15.516 2°49.986 69.4 3.2 69 11.4
2010-09-10 07:17:53 51°15.531 2°50.074 76.4 3.3 80 11.5
2010-09-10 07:19:50 51°15.533 2°50.238 91.5 3.2 99 11.4
2010-09-10 07:20:48 51°15.52 2°50.32 93.2 3.3 103 11.2
2010-09-10 07:21:47 51°15.5 2°50.392 105.6 2.9 124 11.3
2010-09-10 07:22:47 51°15.462 2°50.444 128.1 3.1 148 11.3
2010-09-10 07:23:47 51°15.411 2°50.471 150.4 3.4 169 11.2
2010-09-10 07:24:47 51°15.351 2°50.468 173.7 3.7 192 11.4
2010-09-10 07:25:47 51°15.295 2°50.43 196 3.3 211 11.3
2010-09-10 07:26:47 51°15.251 2°50.387 205.8 2.8 217 11.2
2010-09-10 07:27:47 51°15.218 2°50.338 218.7 3.1 228 11.3
2010-09-10 07:28:47 51°15.189 2°50.265 244 3 246 11.5
2010-09-10 07:29:47 51°15.16 2°50.148 248.9 7.1 249 11.2
2010-09-10 07:30:47 51°15.084 2°49.934 234.7 10 235 11.2
2010-09-10 07:31:47 51°15.013 2°49.788 230.9 5.2 233 11.3
2010-09-10 07:32:47 51°14.979 2°49.691 247.6 3.5 244 11.1
2010-09-10 07:33:47 51°14.943 2°49.614 206.2 4 213 11.1
2010-09-10 07:34:47 51°14.886 2°49.634 112.1 3.7 120 11
2010-09-10 07:35:47 51°14.898 2°49.777 78.5 7.4 80 11
2010-09-10 07:36:48 51°14.883 2°49.996 96 8.6 101 10.8
2010-09-10 07:37:47 51°14.854 2°50.237 96.6 10.1 100 10.5
2010-09-10 07:38:48 51°14.824 2°50.511 95.5 10.5 99 10.3
2010-09-10 07:39:47 51°14.806 2°50.779 89.6 10.3 93 10.1
2010-09-10 07:40:48 51°14.796 2°51.054 89.4 9.5 93 9.7
2010-09-10 07:41:47 51°14.754 2°51.263 112.7 7.8 122 9.3
2010-09-10 07:42:47 51°14.716 2°51.431 93.2 5.9 101 9.1
2010-09-10 07:43:47 51°14.745 2°51.508 31.7 2.6 19 9.2
2010-09-10 07:44:47 51°14.777 2°51.51 7.7 1 324 9.3
2010-09-10 07:45:47 51°14.774 2°51.493 344 0.7 249 9.3
2010-09-10 07:46:48 51°14.769 2°51.478 335.5 0.6 239 9.3
2010-09-10 07:47:47 51°14.76 2°51.463 333.8 0.8 218 9.3
2010-09-10 07:48:47 51°14.751 2°51.451 335.8 0.7 218 9.2
2010-09-10 07:49:47 51°14.741 2°51.442 339.9 0.8 207 9.2
2010-09-10 07:50:47 51°14.728 2°51.431 348 0.8 211 9.1
2010-09-10 07:51:47 51°14.715 2°51.42 353 1 208 9.2
2010-09-10 07:52:47 51°14.701 2°51.407 356.3 0.9 206 9.1
2010-09-10 07:53:47 51°14.712 2°51.373 320.3 3.2 298 9
2010-09-10 07:54:47 51°14.697 2°51.247 241.2 6.7 237 9.4
2010-09-10 07:55:47 51°14.597 2°51.122 206.9 8 211 9
2010-09-10 07:56:47 51°14.487 2°51.033 210.4 6.7 221 8.5
2010-09-10 07:57:47 51°14.459 2°50.901 286.9 4.8 278 8.6
2010-09-10 07:58:47 51°14.504 2°50.834 6.5 3.3 355 8.9
2010-09-10 07:59:47 51°14.546 2°50.865 43.4 3 44 9.1
2010-09-10 08:00:47 51°14.583 2°50.93 48.6 3.5 49 9.3
2010-09-10 08:01:47 51°14.625 2°50.994 44.1 3.5 40 9.3
2010-09-10 08:02:47 51°14.663 2°51.057 49 3.1 50 9.4
2010-09-10 08:03:47 51°14.691 2°51.123 55.8 2.9 60 9.5
2010-09-10 08:04:47 51°14.716 2°51.191 55.9 2.9 59 9.5
2010-09-10 08:05:47 51°14.736 2°51.261 60.3 2.9 67 9.6
2010-09-10 08:06:47 51°14.753 2°51.328 60.1 2.7 66 9.5
2010-09-10 08:07:47 51°14.772 2°51.399 60.6 2.9 67 9.5
2010-09-10 08:08:46 51°14.79 2°51.47 59.3 3 71 9.6
2010-09-10 08:09:47 51°14.811 2°51.546 59.4 3.1 67 9.2
2010-09-10 08:10:46 51°14.829 2°51.617 59.6 3 68 9.6
2010-09-10 08:11:47 51°14.848 2°51.687 59.8 2.8 64 9.3
2010-09-10 08:12:46 51°14.864 2°51.754 59.6 2.8 69 9.1
2010-09-10 08:13:46 51°14.878 2°51.824 68.5 2.8 83 9.1
2010-09-10 08:14:47 51°14.873 2°51.903 88.6 3.1 110 9.3
2010-09-10 08:15:47 51°14.845 2°51.969 111.5 3.1 138 9.2
2010-09-10 08:16:47 51°14.793 2°52.002 151 3.5 173 9.1
2010-09-10 08:17:46 51°14.733 2°51.992 187.1 3.9 199 8.9
2010-09-10 08:18:47 51°14.68 2°51.933 224.4 3.6 224 8.8
2010-09-10 08:19:47 51°14.65 2°51.877 240.3 2.2 232 8.9
2010-09-10 08:20:47 51°14.627 2°51.809 254.9 5 249 8.9
2010-09-10 08:21:47 51°14.595 2°51.597 264.4 10.1 259 8.7
2010-09-10 08:22:47 51°14.582 2°51.317 274.4 10.6 269 8.8
2010-09-10 08:23:47 51°14.591 2°51.12 295.2 5.7 281 9.4
2010-09-10 08:24:47 51°14.615 2°51.017 319.6 3.3 293 9.6
2010-09-10 08:25:47 51°14.633 2°50.95 324.2 2.4 292 9.8
2010-09-10 08:26:47 51°14.641 2°50.896 320.8 1.9 276 10.1
2010-09-10 08:27:47 51°14.641 2°50.847 315.9 1.8 266 10
2010-09-10 08:28:46 51°14.636 2°50.805 312.2 1.5 259 9.8
2010-09-10 08:29:47 51°14.63 2°50.766 309.3 1.5 256 10
2010-09-10 08:30:46 51°14.624 2°50.685 263.4 5.1 251 10.2
2010-09-10 08:31:47 51°14.549 2°50.61 169.3 5.6 178 10
2010-09-10 08:32:47 51°14.504 2°50.728 88.4 6.8 97 9.5
2010-09-10 08:33:47 51°14.531 2°50.962 74.9 10.2 79 9.1
2010-09-10 08:34:47 51°14.558 2°51.247 79 11.2 83 8.9
2010-09-10 08:35:47 51°14.58 2°51.546 79.4 11.5 84 8.7
2010-09-10 08:36:47 51°14.607 2°51.856 79.6 11.8 82 8.6
2010-09-10 08:37:47 51°14.633 2°52.167 78.9 11.8 82 8.4
2010-09-10 08:38:47 51°14.657 2°52.469 79.4 10.6 83 8.4
2010-09-10 08:39:47 51°14.676 2°52.706 77.4 8.3 80 8.4
2010-09-10 08:40:47 51°14.71 2°52.914 69 8 72 8.6
2010-09-10 08:41:47 51°14.757 2°53.11 66.2 7.9 71 8.6
2010-09-10 08:42:47 51°14.815 2°53.209 19.4 3.5 7 8.7
2010-09-10 08:43:47 51°14.855 2°53.189 348.4 1.3 306 8.9
2010-09-10 08:44:47 51°14.851 2°53.169 330.3 0.9 236 9.1
2010-09-10 08:45:47 51°14.843 2°53.15 322.8 0.9 228 9
2010-09-10 08:46:47 51°14.835 2°53.133 323.7 0.8 228 9.1
2010-09-10 08:47:47 51°14.826 2°53.119 330.3 0.7 218 8.9
2010-09-10 08:48:47 51°14.816 2°53.105 338.8 0.9 218 8.9
2010-09-10 08:49:47 51°14.804 2°53.09 343.6 1 219 9.3
2010-09-10 08:50:47 51°14.793 2°53.076 347 0.9 219 8.9
2010-09-10 08:51:47 51°14.783 2°53.062 348.7 0.8 222 8.8
2010-09-10 08:52:46 51°14.772 2°53.047 349.7 0.8 221 9.2
2010-09-10 08:53:47 51°14.761 2°53.032 348.9 0.9 217 8.9
2010-09-10 08:54:46 51°14.773 2°53.006 344.3 3.8 330 9
2010-09-10 08:55:47 51°14.884 2°52.942 352.1 9.3 345 9
2010-09-10 08:56:47 51°15.063 2°52.871 353.9 12.1 347 9.4
2010-09-10 08:57:46 51°15.257 2°52.787 349.3 12.5 341 9.7
2010-09-10 08:58:47 51°15.458 2°52.689 351.3 12.4 342 10.5
2010-09-10 08:59:47 51°15.659 2°52.637 0.5 12.2 353 11
2010-09-10 09:00:47 51°15.856 2°52.551 347.2 12.6 339 11.4
2010-09-10 09:01:47 51°16.052 2°52.443 347.4 12.4 341 11.3
2010-09-10 09:02:47 51°16.249 2°52.336 346.5 12.7 341 11.4
2010-09-10 09:03:47 51°16.443 2°52.232 346.6 12.4 341 10.8
2010-09-10 09:04:47 51°16.636 2°52.137 352.9 12 349 10.3
2010-09-10 09:05:47 51°16.832 2°52.136 9.1 11.8 6 10.2
2010-09-10 09:06:47 51°17.026 2°52.164 9.8 11.8 7 10.2
2010-09-10 09:07:47 51°17.22 2°52.186 8.4 11.6 4 10.5
2010-09-10 09:08:47 51°17.415 2°52.217 10.9 11.7 5 10.7
2010-09-10 09:09:46 51°17.602 2°52.269 15.3 11.7 13 10.1
2010-09-10 09:10:47 51°17.789 2°52.349 19.5 11.4 21 9.7
2010-09-10 09:11:47 51°17.965 2°52.465 28.6 11.7 27 9.9
2010-09-10 09:12:46 51°18.13 2°52.596 29.6 11.1 28 10.1
2010-09-10 09:13:46 51°18.304 2°52.719 28.5 11.3 24 10.4
2010-09-10 09:14:46 51°18.472 2°52.852 33.3 11.2 32 10.7
2010-09-10 09:15:46 51°18.6 2°53.068 53.1 11.3 55 10.9
2010-09-10 09:16:46 51°18.707 2°53.31 54.7 11.2 56 10.7
2010-09-10 09:17:47 51°18.822 2°53.551 52.3 11.1 54 11.1
2010-09-10 09:18:46 51°18.93 2°53.781 52.9 11 51 11.1
2010-09-10 09:19:46 51°19.046 2°54.012 51.8 11.1 49 11.3
2010-09-10 09:20:46 51°19.192 2°54.118 13.9 8.2 4 11.3
2010-09-10 09:21:46 51°19.293 2°54.108 8.1 4.3 352 11.8
2010-09-10 09:22:46 51°19.327 2°54.077 352.5 1.2 267 11.8
2010-09-10 09:23:46 51°19.323 2°54.044 330.4 1.3 258 11.7
2010-09-10 09:24:46 51°19.317 2°54.006 323.5 1.2 244 11.9
2010-09-10 09:25:46 51°19.306 2°53.982 327.9 1 234 11.9
2010-09-10 09:26:46 51°19.294 2°53.958 335.3 1.1 234 11.7
2010-09-10 09:27:46 51°19.281 2°53.936 339.6 1.2 225 11.8
2010-09-10 09:28:47 51°19.268 2°53.912 343.7 1.2 227 11.9
2010-09-10 09:29:46 51°19.256 2°53.889 346.3 1.2 229 11.7
2010-09-10 09:30:46 51°19.243 2°53.864 344.8 1.2 233 11.7
2010-09-10 09:31:46 51°19.231 2°53.839 341.6 1.2 233 12
2010-09-10 09:32:46 51°19.219 2°53.815 338.8 1.1 232 11.8
2010-09-10 09:33:46 51°19.207 2°53.79 337.2 1.1 237 11.9
2010-09-10 09:34:46 51°19.194 2°53.767 336.1 1.2 229 12.1
2010-09-10 09:35:46 51°19.181 2°53.743 336.9 1.2 228 12.2
2010-09-10 09:36:46 51°19.168 2°53.72 338.7 1.3 227 11.6
2010-09-10 09:37:47 51°19.156 2°53.697 337.6 1 232 11.9
2010-09-10 09:38:46 51°19.144 2°53.673 336.8 1.1 230 12.1
2010-09-10 09:39:46 51°19.133 2°53.648 335.4 1.2 230 11.9
2010-09-10 09:40:46 51°19.122 2°53.623 332.7 1 236 12.1
2010-09-10 09:41:46 51°19.111 2°53.597 331.8 1.1 232 12
2010-09-10 09:42:46 51°19.1 2°53.572 331.2 1.2 230 11.8
2010-09-10 09:43:46 51°19.088 2°53.547 330.7 1.4 226 11.9
2010-09-10 09:44:46 51°19.075 2°53.523 332.5 1.1 232 12
2010-09-10 09:45:46 51°19.062 2°53.498 335.6 1.2 224 12
2010-09-10 09:46:46 51°19.049 2°53.473 336.9 1.2 229 11.8
2010-09-10 09:47:46 51°19.035 2°53.449 340.5 1.3 227 12
2010-09-10 09:48:46 51°19.021 2°53.425 345.7 1.1 226 11.9
2010-09-10 09:49:46 51°19.007 2°53.4 347.7 1.1 225 11.9
2010-09-10 09:50:46 51°18.993 2°53.376 346 1 225 11.9
2010-09-10 09:51:46 51°18.98 2°53.359 345.5 1.2 228 11.8
2010-09-10 09:52:47 51°18.961 2°53.334 341.2 1.1 226 12.1
2010-09-10 09:53:47 51°18.949 2°53.311 338.2 1.2 226 12.1
2010-09-10 09:54:47 51°18.936 2°53.288 336.3 1.2 223 12
2010-09-10 09:55:47 51°18.951 2°53.249 349.2 3.4 333 11.5
2010-09-10 09:56:47 51°18.982 2°53.309 89.4 4.6 109 11.9
2010-09-10 09:57:47 51°18.965 2°53.499 80.2 9 87 11.6
2010-09-10 09:58:47 51°18.953 2°53.758 90.2 10.2 97 11.6
2010-09-10 09:59:47 51°18.936 2°54.028 89.2 10.1 95 11.5
2010-09-10 10:00:47 51°18.932 2°54.294 82.7 9.9 88 11.5
2010-09-10 10:01:47 51°18.939 2°54.501 69.6 4.8 69 11.2
2010-09-10 10:02:47 51°18.994 2°54.508 349.7 3.5 326 11.5
2010-09-10 10:03:47 51°19.029 2°54.431 314.5 3.7 291 11.5
2010-09-10 10:04:47 51°19.04 2°54.331 295.5 4 279 11.6
2010-09-10 10:05:47 51°19.053 2°54.229 300 4 284 11.6
2010-09-10 10:06:47 51°19.063 2°54.127 298.1 3.8 279 11.9
2010-09-10 10:07:47 51°19.074 2°54.026 297 3.9 278 12.1
2010-09-10 10:08:47 51°19.08 2°53.921 292.8 4 274 11.9
2010-09-10 10:09:47 51°19.086 2°53.814 293.5 4 274 11.9
2010-09-10 10:10:47 51°19.092 2°53.706 292.9 4.1 276 12.3
2010-09-10 10:11:47 51°19.098 2°53.597 291.5 4.1 274 12.2
2010-09-10 10:12:47 51°19.103 2°53.486 290.6 4.2 275 12.1
2010-09-10 10:13:47 51°19.108 2°53.374 290.6 4.3 273 12.4
2010-09-10 10:14:47 51°19.121 2°53.266 302.4 4.1 284 12.5
2010-09-10 10:15:47 51°19.146 2°53.172 331.1 3.5 311 12.5
2010-09-10 10:16:47 51°19.189 2°53.182 59.5 2.6 63 12.8
2010-09-10 10:17:47 51°19.21 2°53.249 49.3 3.1 48 12.7
2010-09-10 10:18:47 51°19.225 2°53.333 75.6 3.6 84 12.5
2010-09-10 10:19:47 51°19.238 2°53.446 72 4.7 78 12.5
2010-09-10 10:20:47 51°19.257 2°53.581 72.7 5.8 77 12.5
2010-09-10 10:21:47 51°19.286 2°53.783 72.8 9.3 77 12.2
2010-09-10 10:22:47 51°19.33 2°54.065 72.1 11.3 76 12.2
2010-09-10 10:23:47 51°19.375 2°54.361 73.1 11.6 76 12.2
2010-09-10 10:24:47 51°19.415 2°54.658 76.3 11.4 80 12
2010-09-10 10:25:47 51°19.45 2°54.959 76.3 11.6 77 12.1
2010-09-10 10:26:47 51°19.494 2°55.262 73 12 75 11.9
2010-09-10 10:27:47 51°19.542 2°55.56 72.7 11.5 75 11.7
2010-09-10 10:28:47 51°19.588 2°55.857 73.2 11.6 76 11.8
2010-09-10 10:29:47 51°19.633 2°56.154 72.7 11.5 75 11.5
2010-09-10 10:30:47 51°19.679 2°56.457 72.7 11.8 76 11.4
2010-09-10 10:31:47 51°19.725 2°56.763 74.4 11.8 78 11.6
2010-09-10 10:32:47 51°19.771 2°57.068 73.2 11.8 77 11.3
2010-09-10 10:33:47 51°19.815 2°57.372 74.4 11.6 79 11
2010-09-10 10:34:47 51°19.861 2°57.674 72.6 11.8 77 11.1
2010-09-10 10:35:47 51°19.907 2°57.977 73.3 11.8 78 10.9
2010-09-10 10:36:47 51°19.953 2°58.284 74.1 11.9 74 10.6
2010-09-10 10:37:47 51°20 2°58.595 72.5 11.8 74 10.4
2010-09-10 10:38:47 51°20.048 2°58.903 73.4 12 75 10.4
2010-09-10 10:39:47 51°20.095 2°59.212 73.8 12 76 10.4
2010-09-10 10:40:47 51°20.147 2°59.523 72.7 12.1 72 10.2
2010-09-10 10:41:47 51°20.197 2°59.834 72.7 11.9 77 10.1
2010-09-10 10:42:47 51°20.247 3°0.142 74.2 12.1 76 9.9
2010-09-10 10:43:47 51°20.297 3°0.453 74 12.2 76 10
2010-09-10 10:44:47 51°20.347 3°0.769 73.9 12.4 78 9.9
2010-09-10 10:45:47 51°20.4 3°1.081 73.4 12.2 72 9.8
2010-09-10 10:46:47 51°20.456 3°1.397 72.9 12.2 71 9.6
2010-09-10 10:47:47 51°20.508 3°1.714 74 12.4 76 9.5
2010-09-10 10:48:47 51°20.563 3°2.034 73.1 12.5 73 9.5
2010-09-10 10:49:47 51°20.616 3°2.348 72.7 12.1 76 9.4
2010-09-10 10:50:47 51°20.67 3°2.659 73 12.2 75 9.5
2010-09-10 10:51:47 51°20.721 3°2.975 74.1 12.3 76 9.3
2010-09-10 10:52:47 51°20.771 3°3.293 74.4 12.4 74 9.5
2010-09-10 10:53:47 51°20.823 3°3.611 73.2 12.5 74 9.5
2010-09-10 10:54:47 51°20.877 3°3.93 72.7 12.4 77 9.6
2010-09-10 10:55:47 51°20.929 3°4.253 72.7 12.6 75 9.6
2010-09-10 10:56:47 51°20.984 3°4.573 71.8 12.5 73 9.4
2010-09-10 10:57:47 51°21.036 3°4.889 73.4 12.3 76 9.5
2010-09-10 10:58:47 51°21.089 3°5.206 73.4 12.4 75 9.5
2010-09-10 10:59:47 51°21.139 3°5.527 73.2 12.5 75 9.4
2010-09-10 11:00:47 51°21.193 3°5.842 73.4 12.3 74 9.6
2010-09-10 11:01:47 51°21.248 3°6.159 74 12.5 76 9.9
2010-09-10 11:02:47 51°21.294 3°6.447 74.5 8.6 79 10.1
2010-09-10 11:03:47 51°21.317 3°6.62 73.4 5.6 77 10.2
2010-09-10 11:04:47 51°21.365 3°6.689 16.1 3.7 13 10.4
2010-09-10 11:05:47 51°21.421 3°6.714 23 3.2 19 10.6
2010-09-10 11:06:47 51°21.434 3°6.717 349.8 0.2 249 10.8
2010-09-10 11:07:46 51°21.433 3°6.715 330.1 0.1 282 10.7
2010-09-10 11:08:47 51°21.428 3°6.713 318.9 0.3 189 10.8
2010-09-10 11:09:47 51°21.426 3°6.716 314 0.2 163 10.9
2010-09-10 11:10:47 51°21.419 3°6.722 317.3 0.5 153 10.8
2010-09-10 11:11:47 51°21.417 3°6.731 325.8 0.5 140 10.6
2010-09-10 11:12:47 51°21.41 3°6.74 337 0.6 150 10.8
2010-09-10 11:13:47 51°21.402 3°6.749 342.7 0.5 147 10.5
2010-09-10 11:14:47 51°21.394 3°6.758 348.7 0.6 152 10.7
2010-09-10 11:15:47 51°21.387 3°6.766 350.8 0.5 142 10.8
2010-09-10 11:16:47 51°21.381 3°6.774 348.1 0.5 133 10.7
2010-09-10 11:17:47 51°21.373 3°6.783 347.5 0.5 144 10.6
2010-09-10 11:18:47 51°21.368 3°6.792 346.3 0.3 134 10.7
2010-09-10 11:19:47 51°21.379 3°6.781 313.9 1.6 308 10.9
2010-09-10 11:20:47 51°21.378 3°6.712 251.1 3.6 245 10.8
2010-09-10 11:21:47 51°21.312 3°6.672 181.7 5.6 183 10.4
2010-09-10 11:22:47 51°21.199 3°6.645 195.8 7.3 197 9.9
2010-09-10 11:23:47 51°21.087 3°6.547 214.5 8 214 9.3
2010-09-10 11:24:47 51°20.977 3°6.428 215.5 8 215 9
2010-09-10 11:25:47 51°20.866 3°6.309 212.4 8 210 8.7
2010-09-10 11:26:47 51°20.74 3°6.247 192.5 8.1 192 8.5
2010-09-10 11:27:47 51°20.612 3°6.198 194 7.3 194 8.3
2010-09-10 11:28:47 51°20.55 3°6.115 248.9 3.7 247 8.4
2010-09-10 11:29:47 51°20.554 3°6.032 294.5 3.2 292 8.5
2010-09-10 11:30:47 51°20.579 3°5.941 293.2 3.8 293 8.6
2010-09-10 11:31:47 51°20.589 3°5.901 310.2 0.3 323 8.6
2010-09-10 11:32:47 51°20.595 3°5.901 323.4 0.3 38 8.6
2010-09-10 11:33:47 51°20.598 3°5.907 322.9 0.3 57 8.7
2010-09-10 11:34:47 51°20.602 3°5.914 319.2 0.4 72 8.8
2010-09-10 11:35:47 51°20.603 3°5.926 320.2 0.5 71 8.7
2010-09-10 11:36:47 51°20.604 3°5.941 323.6 0.6 87 8.9
2010-09-10 11:37:47 51°20.604 3°5.959 328 0.7 89 8.8
2010-09-10 11:38:47 51°20.603 3°5.979 335.9 0.8 91 8.9
2010-09-10 11:39:47 51°20.626 3°5.981 338.7 3.9 342 8.8
2010-09-10 11:40:47 51°20.726 3°5.917 339.8 7.6 342 8.9
2010-09-10 11:41:47 51°20.814 3°5.963 50.2 4.9 57 9.1
2010-09-10 11:42:47 51°20.816 3°6.086 108.2 5.4 113 9.1
2010-09-10 11:43:47 51°20.751 3°6.192 130.2 4.8 126 9
2010-09-10 11:44:47 51°20.719 3°6.288 121.2 3.7 118 8.9
2010-09-10 11:45:47 51°20.692 3°6.368 123.8 3.3 116 8.9
2010-09-10 11:46:47 51°20.668 3°6.44 124.7 3 116 8.9
2010-09-10 11:47:47 51°20.647 3°6.509 122.7 3 116 9
2010-09-10 11:48:47 51°20.631 3°6.58 121.5 2.8 112 9.1
2010-09-10 11:49:47 51°20.613 3°6.65 122.4 2.8 109 9.1
2010-09-10 11:50:47 51°20.597 3°6.721 121.8 2.8 105 9.2
2010-09-10 11:51:47 51°20.579 3°6.798 120.9 3.3 110 9.3
2010-09-10 11:52:47 51°20.558 3°6.885 120 3.6 109 9.2
2010-09-10 11:53:47 51°20.536 3°6.975 120.5 3.7 111 9.4
2010-09-10 11:54:46 51°20.515 3°7.064 120.7 3.5 107 9.4
2010-09-10 11:55:47 51°20.496 3°7.156 121.2 3.5 109 9.4
2010-09-10 11:56:47 51°20.478 3°7.244 121 3.4 107 9.5
2010-09-10 11:57:47 51°20.461 3°7.326 121.9 3.2 109 9.7
2010-09-10 11:58:47 51°20.441 3°7.4 138 3.1 119 9.6
2010-09-10 11:59:47 51°20.423 3°7.459 145 2.2 115 9.6
2010-09-10 12:00:47 51°20.412 3°7.509 146 1.9 104 9.6
2010-09-10 12:01:47 51°20.408 3°7.554 148.5 2 108 9.5
2010-09-10 12:02:47 51°20.396 3°7.645 108.9 5.1 98 9.6
2010-09-10 12:03:47 51°20.343 3°7.819 129.9 7.9 123 9.3
2010-09-10 12:04:47 51°20.269 3°7.995 131.3 7.9 123 9.3
2010-09-10 12:05:46 51°20.201 3°8.16 131.5 6.8 120 9.1
2010-09-10 12:06:46 51°20.148 3°8.295 133.2 5.5 121 9
2010-09-10 12:07:47 51°20.099 3°8.391 165.7 3.6 149 9
2010-09-10 12:08:46 51°20.056 3°8.385 229 2.1 225 9
2010-09-10 12:09:47 51°20.057 3°8.357 277.5 1 36 9
2010-09-10 12:10:46 51°20.071 3°8.382 307.1 1.5 51 9.2
2010-09-10 12:11:47 51°20.087 3°8.418 328.9 1.7 57 9.1
2010-09-10 12:12:46 51°20.103 3°8.458 344 1.9 59 9.1
2010-09-10 12:13:46 51°20.119 3°8.5 351.3 1.9 58 9.5
2010-09-10 12:14:46 51°20.134 3°8.544 355 1.9 59 9.4
2010-09-10 12:15:47 51°20.151 3°8.588 353.3 2 59 9.1
2010-09-10 12:16:47 51°20.169 3°8.632 348.5 2 54 9
2010-09-10 12:17:46 51°20.189 3°8.676 344.1 2.1 53 9.3
2010-09-10 12:18:46 51°20.21 3°8.719 335.8 2.2 47 9.5
2010-09-10 12:19:46 51°20.259 3°8.728 324.5 5.2 343 9.3
2010-09-10 12:20:47 51°20.376 3°8.666 322.1 7.8 330 9.5
2010-09-10 12:21:46 51°20.421 3°8.554 252.4 2.8 258 9.7
2010-09-10 12:22:47 51°20.392 3°8.532 205.6 2.6 185 9.6
2010-09-10 12:23:46 51°20.341 3°8.516 215.5 2.9 202 9.5
2010-09-10 12:24:46 51°20.3 3°8.481 219.8 2.9 207 9.9
2010-09-10 12:25:47 51°20.258 3°8.445 219.6 2.8 211 9.6
2010-09-10 12:26:46 51°20.218 3°8.412 219.8 2.7 206 9.8
2010-09-10 12:27:47 51°20.178 3°8.379 219.8 2.7 208 9.9
2010-09-10 12:28:46 51°20.137 3°8.352 217.9 2.6 200 9.7
2010-09-10 12:29:47 51°20.096 3°8.325 220 2.6 207 9.9
2010-09-10 12:30:46 51°20.057 3°8.3 218.5 2.6 204 9.7
2010-09-10 12:31:46 51°20.016 3°8.277 219.1 2.6 203 10
2010-09-10 12:32:46 51°19.977 3°8.251 219.9 2.5 205 9.9
2010-09-10 12:33:46 51°19.938 3°8.228 218.1 2.6 198 10.1
2010-09-10 12:34:47 51°19.895 3°8.21 212.6 2.8 188 10.1
2010-09-10 12:35:46 51°19.852 3°8.194 219.8 2.4 203 9.9
2010-09-10 12:36:47 51°19.823 3°8.159 234.7 2.1 231 9.9
2010-09-10 12:37:46 51°19.809 3°8.113 249.5 2 265 10
2010-09-10 12:38:47 51°19.817 3°8.062 262.1 2 299 10.2
2010-09-10 12:39:46 51°19.846 3°8.016 287.7 3.2 330 10.3
2010-09-10 12:40:47 51°19.886 3°7.991 281.7 2.1 351 10.4
2010-09-10 12:41:46 51°19.915 3°7.996 273.4 1.7 18 10.4
2010-09-10 12:42:47 51°19.94 3°8.022 267.8 1.9 37 10.5
2010-09-10 12:43:46 51°19.966 3°8.062 270 2.3 46 10.4
2010-09-10 12:44:47 51°19.995 3°8.111 275.3 2.6 49 10.3
2010-09-10 12:45:47 51°20.022 3°8.166 281 2.8 51 10.3
2010-09-10 12:46:46 51°20.051 3°8.223 286.3 2.9 54 10.4
2010-09-10 12:47:47 51°20.08 3°8.285 291.9 2.8 54 10.3
2010-09-10 12:48:46 51°20.111 3°8.34 297.3 2.6 18 10.5
2010-09-10 12:49:47 51°20.16 3°8.269 282 6.1 299 10.3
2010-09-10 12:50:46 51°20.188 3°8.087 262.1 7.9 270 10.3
2010-09-10 12:51:46 51°20.156 3°7.865 244.8 9.3 248 10.4
2010-09-10 12:52:47 51°20.09 3°7.624 244.7 9.9 247 10.6
2010-09-10 12:53:46 51°20.021 3°7.386 242.3 10 243 10.8
2010-09-10 12:54:46 51°19.949 3°7.147 243 9.9 244 10.8
2010-09-10 12:55:46 51°19.88 3°6.905 243.8 10 245 10.8
2010-09-10 12:56:46 51°19.808 3°6.667 239.7 10 240 10.9
2010-09-10 12:57:46 51°19.725 3°6.441 239.6 9.8 240 11
2010-09-10 12:58:46 51°19.644 3°6.214 239.8 9.8 241 11.1
2010-09-10 12:59:46 51°19.563 3°5.987 240.1 9.9 241 11.3
2010-09-10 13:00:46 51°19.483 3°5.759 240.2 9.8 241 11.2
2010-09-10 13:01:46 51°19.404 3°5.532 240.3 9.8 242 11.4
2010-09-10 13:02:46 51°19.325 3°5.304 240.4 9.8 241 11.5
2010-09-10 13:03:46 51°19.245 3°5.077 240.4 9.8 239 11.5
2010-09-10 13:04:46 51°19.165 3°4.849 240.2 9.9 241 11.7
2010-09-10 13:05:46 51°19.084 3°4.619 240.2 9.9 241 11.7
2010-09-10 13:06:46 51°19.004 3°4.389 240.5 9.9 239 11.9
2010-09-10 13:07:46 51°18.922 3°4.155 240.3 10.1 243 12.1
2010-09-10 13:08:46 51°18.841 3°3.921 240.3 10.1 242 11.9
2010-09-10 13:09:46 51°18.773 3°3.674 248.7 10.3 253 12
2010-09-10 13:10:46 51°18.725 3°3.41 250.3 10.3 253 12.1
2010-09-10 13:11:46 51°18.678 3°3.147 250 10.3 253 11.7
2010-09-10 13:12:47 51°18.627 3°2.881 249.2 10.4 252 11.8
2010-09-10 13:13:46 51°18.579 3°2.618 249.5 10.5 252 11.7
2010-09-10 13:14:47 51°18.524 3°2.346 249.1 10.7 252 11.5
2010-09-10 13:15:46 51°18.471 3°2.076 249.4 10.9 252 11.4
2010-09-10 13:16:47 51°18.417 3°1.798 249.7 10.7 252 11.3
2010-09-10 13:17:46 51°18.364 3°1.531 249.2 10.8 252 11
2010-09-10 13:18:47 51°18.309 3°1.254 249.6 10.2 252 10.8
2010-09-10 13:19:46 51°18.307 3°1.013 272.7 9 279 11.2
2010-09-10 13:20:46 51°18.329 3°0.774 270.5 9.1 279 11.2
2010-09-10 13:21:46 51°18.35 3°0.536 270.8 9 277 11.3
2010-09-10 13:22:46 51°18.371 3°0.295 271.2 9.2 278 11.2
2010-09-10 13:23:47 51°18.393 3°0.051 271 9.1 279 11.1
2010-09-10 13:24:46 51°18.414 2°59.813 270.4 9.1 276 11.2
2010-09-10 13:25:47 51°18.42 2°59.572 262.8 8.8 268 11.7
2010-09-10 13:26:46 51°18.408 2°59.343 256.6 8.6 262 11.8
2010-09-10 13:27:46 51°18.372 2°59.126 247.6 8.4 251 12
2010-09-10 13:28:47 51°18.324 2°58.915 245.1 8.3 248 12.1
2010-09-10 13:29:46 51°18.268 2°58.714 243.8 8.6 247 12.3
2010-09-10 13:30:47 51°18.209 2°58.498 243.5 8.7 248 12.7
2010-09-10 13:31:46 51°18.149 2°58.297 241.1 8.5 242 12.9
2010-09-10 13:32:46 51°18.087 2°58.097 241.1 8.3 245 12.8
2010-09-10 13:33:46 51°18.027 2°57.898 241.2 8.4 247 13
2010-09-10 13:34:46 51°17.965 2°57.7 241.4 8.5 244 13
2010-09-10 13:35:46 51°17.904 2°57.499 241.2 8.4 243 13.3
2010-09-10 13:36:46 51°17.832 2°57.307 236.5 8.5 238 13.2
2010-09-10 13:37:46 51°17.756 2°57.12 234.5 8.4 237 13.2
2010-09-10 13:38:46 51°17.676 2°56.936 235.1 8.3 236 13.2
2010-09-10 13:39:47 51°17.598 2°56.75 234.8 8.3 233 13.3
2010-09-10 13:40:46 51°17.522 2°56.572 235.2 8.2 236 13.2
2010-09-10 13:41:47 51°17.435 2°56.398 230.8 8.2 230 13.2
2010-09-10 13:42:46 51°17.344 2°56.236 228 8.4 227 13.2
2010-09-10 13:43:46 51°17.245 2°56.078 224.3 8.3 218 13.7
2010-09-10 13:44:46 51°17.142 2°55.933 223.9 8.3 220 13.1
2010-09-10 13:45:46 51°17.037 2°55.789 221.5 8.4 216 13.2
2010-09-10 13:46:47 51°16.918 2°55.654 214.9 8.9 210 13.3
2010-09-10 13:47:46 51°16.78 2°55.562 203.2 9.3 199 13.2
2010-09-10 13:48:46 51°16.627 2°55.49 202.9 9.7 196 13.5
2010-09-10 13:49:46 51°16.475 2°55.414 203.3 9.7 198 13.6
2010-09-10 13:50:46 51°16.317 2°55.347 199 9.9 194 13.7
2010-09-10 13:51:46 51°16.154 2°55.284 199.8 10 194 13.4
2010-09-10 13:52:46 51°15.993 2°55.22 199.7 10.1 196 13.3
2010-09-10 13:53:46 51°15.835 2°55.159 200.5 9.6 197 13.1
2010-09-10 13:54:46 51°15.677 2°55.089 200.1 10.1 195 12.6
2010-09-10 13:55:46 51°15.511 2°55.014 199.7 10.5 196 12.2
2010-09-10 13:56:46 51°15.34 2°54.947 193.9 10.8 188 11.9
2010-09-10 13:57:47 51°15.162 2°54.919 189.2 10.4 183 11.6
2010-09-10 13:58:46 51°14.99 2°54.938 184.6 10.5 175 12.3
2010-09-10 13:59:47 51°14.81 2°54.967 181.1 10.8 174 12.5
2010-09-10 14:00:46 51°14.634 2°55.022 174.7 11.1 163 13.1
2010-09-10 14:01:46 51°14.459 2°55.113 159.9 11.5 157 13.7
2010-09-10 14:02:46 51°14.29 2°55.269 147.3 11.6 146 13.5
2010-09-10 14:03:46 51°14.152 2°55.389 153.2 8.3 155 13.8
2010-09-10 14:04:46 51°14.046 2°55.467 155.4 6.3 155 13.4
2010-09-10 14:05:46 51°13.945 2°55.543 154.7 7.1 155 14
2010-09-10 14:06:46 51°13.829 2°55.631 151.9 7.3 152 14.4
2010-09-10 14:07:46 51°13.754 2°55.733 133.4 5.1 132 12.5
2010-09-10 14:08:46 51°13.701 2°55.838 128.9 5 127 12
2010-09-10 14:09:46 51°13.666 2°55.94 109.1 3.5 110 10.1